Time;durP1;ratioP1;P1;durP2;ratioP2;P2;SDS_P1;SDS_P2;PMS_P1;PMS_P2;Temp;Humidity;BMP_temperature;BMP_pressure;BME280_temperature;BME280_humidity;BME280_pressure;Samples;Min_cycle;Max_cycle;Signal;HPM_P1;HPM_P2
2022/11/13 00:00:57;;;;;;;5.88;4.15;;;10.40;86.00;;;;;;5063238;28;20484;-78
2022/11/13 00:03:23;;;;;;;5.30;3.57;;;10.40;86.10;;;;;;5034508;28;20264;-79
2022/11/13 00:05:57;;;;;;;5.03;3.72;;;10.40;86.10;;;;;;5044412;28;20604;-78
2022/11/13 00:08:22;;;;;;;5.75;3.63;;;10.30;86.10;;;;;;5056416;28;20506;-79
2022/11/13 00:10:48;;;;;;;5.07;3.50;;;10.30;86.10;;;;;;5058309;28;20025;-78
2022/11/13 00:13:13;;;;;;;5.27;3.57;;;10.20;86.10;;;;;;5045709;28;20104;-78
2022/11/13 00:15:39;;;;;;;6.32;3.40;;;10.20;86.20;;;;;;5064264;28;20028;-78
2022/11/13 00:18:05;;;;;;;4.37;2.93;;;10.20;86.10;;;;;;5039408;28;20052;-78
2022/11/13 00:20:30;;;;;;;5.05;3.75;;;10.10;86.10;;;;;;5057380;28;20098;-78
2022/11/13 00:22:56;;;;;;;6.10;3.63;;;10.10;86.10;;;;;;5058463;28;20163;-78
2022/11/13 00:25:22;;;;;;;6.47;3.80;;;10.00;86.10;;;;;;5057228;28;20621;-78
2022/11/13 00:27:47;;;;;;;5.75;3.92;;;10.00;86.10;;;;;;5059460;28;20385;-79
2022/11/13 00:30:13;;;;;;;5.90;3.90;;;10.00;86.30;;;;;;5039870;28;20507;-79
2022/11/13 00:32:39;;;;;;;5.55;3.78;;;9.90;86.30;;;;;;5068360;28;20021;-79
2022/11/13 00:35:05;;;;;;;5.90;4.03;;;9.90;86.40;;;;;;5044256;28;20031;-79
2022/11/13 00:37:31;;;;;;;5.20;3.63;;;9.80;86.40;;;;;;5066700;28;20024;-79
2022/11/13 00:39:57;;;;;;;7.17;3.93;;;9.80;86.40;;;;;;5059474;28;20511;-79
2022/11/13 00:42:22;;;;;;;5.82;4.20;;;9.70;86.40;;;;;;5059907;28;20275;-78
2022/11/13 00:44:48;;;;;;;7.27;4.30;;;9.70;86.50;;;;;;5065343;28;20028;-79
2022/11/13 00:47:13;;;;;;;5.80;3.92;;;9.70;86.70;;;;;;5076750;28;20042;-79
2022/11/13 00:49:39;;;;;;;6.23;3.73;;;9.60;86.70;;;;;;5029481;28;20066;-78
2022/11/13 00:52:05;;;;;;;6.43;4.00;;;9.60;86.80;;;;;;5067444;28;20035;-79
2022/11/13 00:54:30;;;;;;;6.30;3.58;;;9.60;86.90;;;;;;5064438;28;20048;-79
2022/11/13 00:56:56;;;;;;;6.27;3.73;;;9.50;87.00;;;;;;5063511;28;20029;-78
2022/11/13 00:59:21;;;;;;;8.98;4.65;;;9.50;87.00;;;;;;5050363;28;20032;-79
2022/11/13 01:01:47;;;;;;;8.60;4.13;;;9.50;87.10;;;;;;5070542;28;20096;-79
2022/11/13 01:04:13;;;;;;;7.65;4.07;;;9.50;87.20;;;;;;5050342;28;20021;-79
2022/11/13 01:06:38;;;;;;;6.50;3.93;;;9.50;87.30;;;;;;5060453;28;20051;-79
2022/11/13 01:09:05;;;;;;;6.90;4.50;;;9.50;87.20;;;;;;5055947;28;20397;-78
2022/11/13 01:11:30;;;;;;;6.22;3.72;;;9.50;87.20;;;;;;5046724;28;20024;-79
2022/11/13 01:13:56;;;;;;;8.13;3.97;;;9.40;87.10;;;;;;5056558;28;20040;-79
2022/11/13 01:16:24;;;;;;;7.23;3.87;;;9.40;87.20;;;;;;5054263;28;20066;-79
2022/11/13 01:18:52;;;;;;;6.00;4.03;;;9.40;87.20;;;;;;5061138;28;20043;-79
2022/11/13 01:21:21;;;;;;;5.72;3.45;;;9.30;87.20;;;;;;5040169;28;20292;-78
2022/11/13 01:23:47;;;;;;;6.78;3.83;;;9.30;87.20;;;;;;5041208;28;20498;-79
2022/11/13 01:26:18;;;;;;;6.32;3.72;;;9.30;87.30;;;;;;5029426;28;20028;-79
2022/11/13 01:28:45;;;;;;;5.83;3.40;;;9.20;87.20;;;;;;5043111;28;20115;-78
2022/11/13 01:31:14;;;;;;;4.85;3.33;;;9.20;87.20;;;;;;5053369;28;20095;-79
2022/11/13 01:33:39;;;;;;;5.38;3.42;;;9.20;87.20;;;;;;5047743;28;20019;-79
2022/11/13 01:36:09;;;;;;;4.67;3.20;;;9.20;87.20;;;;;;5034735;28;20024;-78
2022/11/13 01:38:35;;;;;;;4.38;2.92;;;9.10;87.30;;;;;;5046338;28;20048;-78
2022/11/13 01:41:01;;;;;;;4.55;3.33;;;9.10;87.30;;;;;;5055179;28;20032;-79
2022/11/13 01:43:30;;;;;;;5.65;3.20;;;9.10;87.40;;;;;;5060950;28;20021;-79
2022/11/13 01:45:59;;;;;;;5.00;3.40;;;9.10;87.50;;;;;;5055262;28;20030;-79
2022/11/13 01:48:37;;;;;;;4.70;3.20;;;9.10;87.60;;;;;;5048576;28;20028;-79
2022/11/13 01:51:18;;;;;;;4.25;3.22;;;9.10;87.70;;;;;;5021552;28;20407;-79
2022/11/13 01:53:46;;;;;;;4.97;3.38;;;9.00;87.70;;;;;;5058417;28;20478;-79
2022/11/13 01:56:13;;;;;;;5.07;3.53;;;9.00;87.70;;;;;;5044841;28;20031;-79
2022/11/13 01:58:41;;;;;;;5.63;3.53;;;9.00;87.80;;;;;;5055054;28;20032;-79
2022/11/13 02:01:07;;;;;;;4.77;3.27;;;9.00;87.90;;;;;;5068505;28;20389;-79
2022/11/13 02:03:33;;;;;;;4.95;3.45;;;9.00;88.00;;;;;;5041029;28;20103;-79
2022/11/13 02:05:59;;;;;;;5.38;3.33;;;8.90;88.00;;;;;;5039442;28;20165;-79
2022/11/13 02:08:25;;;;;;;5.33;3.50;;;9.00;88.10;;;;;;5054954;28;20019;-79
2022/11/13 02:10:50;;;;;;;4.97;3.55;;;9.00;88.10;;;;;;5059557;28;20054;-79
2022/11/13 02:13:16;;;;;;;4.73;3.30;;;8.90;88.10;;;;;;5041014;28;20455;-79
2022/11/13 02:15:43;;;;;;;4.53;3.20;;;8.90;88.10;;;;;;5059849;28;20021;-79
2022/11/13 02:18:10;;;;;;;4.65;3.25;;;8.90;88.30;;;;;;5036404;28;20443;-79
2022/11/13 02:21:00;;;;;;;5.90;3.65;;;8.90;88.30;;;;;;5061244;28;20514;-79
2022/11/13 02:23:52;;;;;;;4.83;3.23;;;8.90;88.40;;;;;;5040358;28;20524;-79
2022/11/13 02:26:21;;;;;;;5.28;3.45;;;8.90;88.40;;;;;;5056103;28;20033;-79
2022/11/13 02:28:46;;;;;;;5.22;3.38;;;8.90;88.30;;;;;;5055640;28;20043;-79
2022/11/13 02:31:13;;;;;;;5.60;3.40;;;8.80;88.40;;;;;;5060525;28;20632;-79
2022/11/13 02:33:39;;;;;;;5.72;3.45;;;8.80;88.50;;;;;;5058145;28;20051;-79
2022/11/13 02:36:08;;;;;;;4.93;3.35;;;8.80;88.70;;;;;;5032304;28;20017;-79
2022/11/13 02:38:35;;;;;;;5.40;3.58;;;8.80;88.80;;;;;;5034305;28;20025;-79
2022/11/13 02:41:00;;;;;;;5.40;3.47;;;8.80;88.80;;;;;;5053429;28;20389;-79
2022/11/13 02:43:26;;;;;;;5.13;3.30;;;8.80;88.90;;;;;;5041299;28;20013;-79
2022/11/13 02:45:52;;;;;;;5.57;3.40;;;8.80;88.90;;;;;;5059501;28;20024;-79
2022/11/13 02:48:18;;;;;;;5.60;3.80;;;8.80;89.00;;;;;;5059481;28;20028;-79
2022/11/13 02:50:43;;;;;;;4.77;3.30;;;8.80;89.00;;;;;;5037538;28;20021;-79
2022/11/13 02:53:09;;;;;;;5.93;3.60;;;8.80;89.00;;;;;;5035016;28;20955;-79
2022/11/13 02:55:35;;;;;;;4.90;3.13;;;8.80;89.00;;;;;;5060934;28;20535;-79
2022/11/13 02:58:01;;;;;;;5.33;3.50;;;8.80;89.10;;;;;;5053163;28;20031;-79
2022/11/13 03:00:26;;;;;;;5.47;3.60;;;8.80;89.10;;;;;;5059289;28;20024;-79
2022/11/13 03:02:52;;;;;;;4.70;3.33;;;8.80;89.20;;;;;;5054125;28;20093;-79
2022/11/13 03:05:18;;;;;;;5.63;3.35;;;8.80;89.30;;;;;;5054853;28;20307;-79
2022/11/13 03:07:44;;;;;;;5.50;3.80;;;8.80;89.40;;;;;;5050654;28;20210;-79
2022/11/13 03:10:10;;;;;;;6.65;4.00;;;8.80;89.50;;;;;;5039971;28;20369;-79
2022/11/13 03:12:37;;;;;;;8.40;4.55;;;8.80;89.70;;;;;;5043154;28;20032;-79
2022/11/13 03:15:04;;;;;;;5.57;3.50;;;8.80;89.70;;;;;;5044475;28;20467;-79
2022/11/13 03:17:31;;;;;;;5.47;3.50;;;8.80;89.70;;;;;;5059110;28;20214;-79
2022/11/13 03:19:56;;;;;;;6.32;3.70;;;8.80;89.70;;;;;;5059353;28;20025;-79
2022/11/13 03:22:22;;;;;;;5.37;3.30;;;8.80;89.60;;;;;;5050777;28;20073;-79
2022/11/13 03:24:47;;;;;;;6.28;3.58;;;8.80;89.60;;;;;;5035484;28;20480;-79
2022/11/13 03:27:13;;;;;;;5.27;3.33;;;8.80;89.60;;;;;;5042940;28;20551;-79
2022/11/13 03:29:39;;;;;;;5.50;3.47;;;8.70;89.40;;;;;;5055433;28;20016;-79
2022/11/13 03:32:05;;;;;;;5.90;3.70;;;8.70;89.40;;;;;;5054446;28;20082;-79
2022/11/13 03:34:31;;;;;;;5.63;3.42;;;8.70;89.40;;;;;;5061654;28;20031;-79
2022/11/13 03:36:56;;;;;;;6.05;3.60;;;8.70;89.40;;;;;;5060721;28;20067;-79
2022/11/13 03:39:22;;;;;;;5.80;3.70;;;8.60;89.40;;;;;;5043671;28;20075;-79
2022/11/13 03:41:48;;;;;;;5.40;3.78;;;8.60;89.40;;;;;;5068958;28;20099;-79
2022/11/13 03:44:13;;;;;;;5.13;3.50;;;8.60;89.40;;;;;;5068264;28;20024;-79
2022/11/13 03:46:39;;;;;;;4.63;3.20;;;8.50;89.30;;;;;;5064439;28;20173;-79
2022/11/13 03:49:05;;;;;;;5.22;3.50;;;8.50;89.40;;;;;;5049827;28;20299;-79
2022/11/13 03:51:30;;;;;;;5.87;3.60;;;8.50;90.10;;;;;;5049462;28;20545;-79
2022/11/13 03:53:56;;;;;;;5.10;3.90;;;8.50;89.50;;;;;;5062323;28;20254;-79
2022/11/13 03:56:21;;;;;;;4.80;3.37;;;8.40;89.60;;;;;;5027452;28;20165;-79
2022/11/13 03:58:47;;;;;;;4.33;3.13;;;8.40;89.80;;;;;;5057926;28;20024;-79
2022/11/13 04:01:13;;;;;;;5.95;3.45;;;8.40;89.80;;;;;;5065571;28;20153;-79
2022/11/13 04:03:38;;;;;;;5.70;3.40;;;8.30;89.90;;;;;;5064717;28;20039;-79
2022/11/13 04:06:04;;;;;;;8.27;3.42;;;8.30;89.90;;;;;;5071516;28;20047;-79
2022/11/13 04:08:30;;;;;;;5.03;3.30;;;8.30;90.00;;;;;;5065626;28;20027;-79
2022/11/13 04:11:05;;;;;;;4.53;3.17;;;8.30;90.00;;;;;;5042391;28;20032;-79
2022/11/13 04:13:31;;;;;;;5.03;3.28;;;8.30;90.10;;;;;;5041844;28;20407;-79
2022/11/13 04:15:57;;;;;;;4.53;3.17;;;8.30;90.10;;;;;;5061164;28;20723;-79
2022/11/13 04:18:23;;;;;;;4.60;3.00;;;8.30;90.00;;;;;;5060239;28;20024;-79
2022/11/13 04:20:48;;;;;;;5.17;2.90;;;8.30;90.00;;;;;;5070668;28;20358;-79
2022/11/13 04:23:16;;;;;;;3.90;2.83;;;8.30;90.00;;;;;;5071262;28;20042;-79
2022/11/13 04:25:42;;;;;;;4.77;2.93;;;8.30;90.00;;;;;;5057261;28;20023;-79
2022/11/13 04:28:09;;;;;;;5.22;3.20;;;8.20;90.00;;;;;;5040290;28;20032;-79
2022/11/13 04:30:35;;;;;;;4.72;2.97;;;8.20;90.00;;;;;;5043754;28;20035;-79
2022/11/13 04:33:01;;;;;;;5.25;3.03;;;8.20;90.00;;;;;;5042266;28;20028;-79
2022/11/13 04:35:27;;;;;;;3.87;3.00;;;8.20;90.00;;;;;;5057038;28;20137;-79
2022/11/13 04:37:52;;;;;;;4.70;3.30;;;8.20;90.00;;;;;;5065426;28;20024;-79
2022/11/13 04:40:18;;;;;;;5.47;3.70;;;8.20;90.00;;;;;;5060816;28;20583;-79
2022/11/13 04:42:49;;;;;;;5.15;3.42;;;8.10;90.00;;;;;;5038363;28;20029;-79
2022/11/13 04:45:22;;;;;;;4.63;3.22;;;8.10;90.00;;;;;;5051924;28;20035;-79
2022/11/13 04:47:48;;;;;;;5.80;3.70;;;8.10;90.00;;;;;;5061979;28;20534;-79
2022/11/13 04:50:14;;;;;;;4.97;3.28;;;8.10;90.10;;;;;;5058585;28;20690;-79
2022/11/13 04:52:41;;;;;;;5.18;3.30;;;8.10;90.10;;;;;;5062471;28;20112;-79
2022/11/13 04:55:07;;;;;;;5.75;3.58;;;8.00;90.10;;;;;;5042560;28;20518;-79
2022/11/13 04:57:33;;;;;;;4.80;3.30;;;8.10;90.20;;;;;;5039924;28;20131;-79
2022/11/13 04:59:58;;;;;;;5.17;3.17;;;8.00;90.10;;;;;;5057345;28;20046;-79
2022/11/13 05:02:24;;;;;;;5.38;3.35;;;8.00;90.10;;;;;;5057937;28;20038;-79
2022/11/13 05:04:50;;;;;;;4.87;3.33;;;8.00;90.10;;;;;;5044306;28;20528;-79
2022/11/13 05:07:16;;;;;;;4.93;3.47;;;8.00;90.10;;;;;;5042350;28;20110;-79
2022/11/13 05:09:41;;;;;;;5.33;3.60;;;8.00;90.10;;;;;;5058804;28;20027;-79
2022/11/13 05:12:07;;;;;;;4.53;3.40;;;8.00;90.10;;;;;;5044618;28;20308;-79
2022/11/13 05:14:37;;;;;;;4.53;3.20;;;7.90;90.10;;;;;;5056848;28;20020;-79
2022/11/13 05:17:03;;;;;;;5.13;3.45;;;7.90;90.10;;;;;;5069741;28;20036;-79
2022/11/13 05:19:31;;;;;;;6.53;3.65;;;7.90;90.10;;;;;;5042915;28;20292;-79
2022/11/13 05:21:56;;;;;;;5.82;3.63;;;7.80;90.10;;;;;;5059750;28;20265;-79
2022/11/13 05:24:22;;;;;;;5.00;3.40;;;7.80;90.10;;;;;;5057605;28;20473;-79
2022/11/13 05:26:49;;;;;;;4.28;3.00;;;7.80;90.10;;;;;;5049919;28;20031;-79
2022/11/13 05:29:14;;;;;;;5.30;3.65;;;7.70;90.10;;;;;;5037451;28;20017;-79
2022/11/13 05:31:40;;;;;;;4.70;3.40;;;7.70;90.10;;;;;;5039411;28;20032;-79
2022/11/13 05:34:06;;;;;;;5.80;3.40;;;7.70;90.10;;;;;;5058151;28;20381;-79
2022/11/13 05:36:32;;;;;;;5.55;3.13;;;7.70;90.10;;;;;;5060578;28;20030;-79
2022/11/13 05:38:57;;;;;;;5.80;3.28;;;7.70;90.10;;;;;;5060561;28;20485;-79
2022/11/13 05:41:24;;;;;;;4.93;3.43;;;7.60;90.10;;;;;;5057792;28;20130;-79
2022/11/13 05:43:49;;;;;;;4.93;3.10;;;7.60;90.10;;;;;;5035879;28;20074;-79
2022/11/13 05:46:21;;;;;;;4.75;3.38;;;7.50;90.10;;;;;;5052755;28;20794;-79
2022/11/13 05:48:58;;;;;;;4.70;3.30;;;7.50;90.10;;;;;;5062755;28;20024;-79
2022/11/13 05:51:31;;;;;;;4.00;3.00;;;7.50;90.10;;;;;;5028370;28;20028;-79
2022/11/13 05:53:58;;;;;;;4.00;2.78;;;7.50;90.10;;;;;;5059868;28;20404;-79
2022/11/13 05:56:35;;;;;;;4.28;3.08;;;7.50;90.10;;;;;;5060202;28;20023;-79
2022/11/13 05:59:02;;;;;;;4.50;2.80;;;7.50;90.20;;;;;;5056454;27;20410;-79
2022/11/13 06:01:36;;;;;;;4.23;2.87;;;7.40;90.10;;;;;;5040330;28;20551;-79
2022/11/13 06:04:04;;;;;;;3.97;3.00;;;7.40;90.20;;;;;;5050089;28;20198;-79
2022/11/13 06:06:30;;;;;;;4.10;2.80;;;7.40;90.10;;;;;;5061796;28;20031;-79
2022/11/13 06:08:58;;;;;;;3.75;2.67;;;7.30;90.10;;;;;;5039809;28;20066;-79
2022/11/13 06:11:25;;;;;;;3.70;2.83;;;7.30;90.10;;;;;;5067417;28;20024;-79
2022/11/13 06:13:52;;;;;;;4.63;2.90;;;7.30;90.10;;;;;;5032663;28;20267;-79
2022/11/13 06:16:21;;;;;;;4.97;2.97;;;7.30;90.20;;;;;;5065490;28;20020;-79
2022/11/13 06:18:48;;;;;;;10.00;4.85;;;7.30;90.20;;;;;;5035222;28;20178;-79
2022/11/13 06:21:16;;;;;;;10.07;5.30;;;7.30;90.20;;;;;;5075056;28;20017;-79
2022/11/13 06:23:43;;;;;;;12.80;6.55;;;7.20;90.20;;;;;;5040736;28;20403;-79
2022/11/13 06:26:13;;;;;;;13.30;6.63;;;7.20;90.50;;;;;;5060756;28;21313;-79
2022/11/13 06:28:39;;;;;;;14.68;6.65;;;7.20;90.20;;;;;;5061093;28;20583;-79
2022/11/13 06:31:16;;;;;;;17.17;7.47;;;7.20;90.20;;;;;;5038746;28;20039;-79
2022/11/13 06:33:42;;;;;;;16.77;7.13;;;7.10;90.20;;;;;;5039634;28;20140;-79
2022/11/13 06:36:11;;;;;;;17.38;7.68;;;7.10;90.10;;;;;;5041546;28;20024;-79
2022/11/13 06:38:38;;;;;;;13.07;6.57;;;7.10;90.10;;;;;;5046856;28;20476;-79
2022/11/13 06:41:05;;;;;;;11.80;6.10;;;7.10;90.10;;;;;;5058070;28;20024;-79
2022/11/13 06:43:32;;;;;;;13.65;6.60;;;7.10;90.10;;;;;;5035127;28;20047;-79
2022/11/13 06:46:01;;;;;;;11.32;5.80;;;7.00;90.00;;;;;;5034811;28;20719;-79
2022/11/13 06:48:27;;;;;;;14.32;6.20;;;7.00;90.00;;;;;;5056608;28;20559;-79
2022/11/13 06:50:52;;;;;;;14.77;6.13;;;6.90;90.00;;;;;;5049251;28;20050;-79
2022/11/13 06:53:18;;;;;;;11.53;6.50;;;6.90;90.00;;;;;;5047013;28;20040;-79
2022/11/13 06:55:49;;;;;;;12.52;6.20;;;6.90;90.00;;;;;;5039930;28;20028;-79
2022/11/13 06:58:15;;;;;;;10.45;5.50;;;6.90;90.00;;;;;;5064121;28;20178;-79
2022/11/13 07:00:42;;;;;;;9.53;5.20;;;6.80;90.00;;;;;;5019391;28;21465;-79
2022/11/13 07:03:16;;;;;;;9.45;4.72;;;6.80;90.10;;;;;;5060671;28;20048;-79
2022/11/13 07:05:42;;;;;;;8.27;4.72;;;6.80;90.10;;;;;;5049392;28;20051;-79
2022/11/13 07:08:07;;;;;;;7.82;4.60;;;6.80;90.00;;;;;;5057707;28;20488;-79
2022/11/13 07:10:33;;;;;;;8.37;4.90;;;6.70;90.10;;;;;;5040850;28;20300;-79
2022/11/13 07:12:59;;;;;;;7.50;4.27;;;6.70;90.10;;;;;;5038364;28;20253;-79
2022/11/13 07:15:25;;;;;;;6.18;4.07;;;6.70;90.20;;;;;;5057032;28;20023;-79
2022/11/13 07:17:51;;;;;;;7.85;4.13;;;6.70;90.20;;;;;;5037569;28;20036;-79
2022/11/13 07:20:17;;;;;;;6.63;4.20;;;6.60;90.20;;;;;;5055993;28;20074;-79
2022/11/13 07:22:42;;;;;;;6.90;3.83;;;6.70;90.30;;;;;;5036949;28;20301;-79
2022/11/13 07:25:08;;;;;;;4.80;3.40;;;6.60;90.30;;;;;;5061323;28;20035;-79
2022/11/13 07:27:34;;;;;;;5.50;3.67;;;6.60;90.30;;;;;;5062355;28;20273;-79
2022/11/13 07:29:59;;;;;;;5.75;3.75;;;6.60;90.40;;;;;;5058165;28;20338;-79
2022/11/13 07:32:25;;;;;;;5.30;3.80;;;6.70;90.60;;;;;;5036462;28;20034;-79
2022/11/13 07:34:51;;;;;;;4.90;3.40;;;6.80;91.00;;;;;;5056358;28;20060;-79
2022/11/13 07:37:17;;;;;;;5.22;3.40;;;6.90;91.20;;;;;;5031333;28;20415;-79
2022/11/13 07:39:42;;;;;;;4.97;3.50;;;6.90;91.10;;;;;;5044938;28;20028;-79
2022/11/13 07:42:08;;;;;;;5.17;3.60;;;7.00;91.00;;;;;;5062211;28;20028;-79
2022/11/13 07:44:34;;;;;;;5.83;3.80;;;7.10;90.90;;;;;;5042912;28;20456;-79
2022/11/13 07:47:00;;;;;;;5.50;3.57;;;7.10;90.80;;;;;;5063814;28;20343;-79
2022/11/13 07:49:25;;;;;;;4.95;3.25;;;7.10;90.80;;;;;;5027676;28;20032;-79
2022/11/13 07:51:51;;;;;;;6.03;3.57;;;7.10;90.70;;;;;;5049174;28;21150;-79
2022/11/13 07:54:17;;;;;;;5.17;3.53;;;7.20;90.70;;;;;;5069181;28;20043;-79
2022/11/13 07:56:43;;;;;;;5.80;3.50;;;7.20;90.70;;;;;;5042484;28;20638;-79
2022/11/13 07:59:09;;;;;;;5.13;3.55;;;7.20;90.70;;;;;;5067771;28;20386;-79
2022/11/13 08:01:34;;;;;;;5.22;3.60;;;7.20;90.70;;;;;;5064068;28;20017;-79
2022/11/13 08:04:00;;;;;;;5.23;3.60;;;7.30;90.80;;;;;;5024628;28;20155;-79
2022/11/13 08:06:26;;;;;;;7.03;3.58;;;7.30;90.80;;;;;;5070345;28;20115;-79
2022/11/13 08:08:53;;;;;;;5.87;3.30;;;7.30;90.90;;;;;;5049571;28;20052;-79
2022/11/13 08:11:18;;;;;;;5.43;3.53;;;7.30;90.90;;;;;;5035596;28;20106;-79
2022/11/13 08:13:44;;;;;;;5.03;3.60;;;7.30;91.00;;;;;;5060844;28;20411;-79
2022/11/13 08:16:10;;;;;;;4.77;3.30;;;7.30;91.00;;;;;;5052159;28;20047;-79
2022/11/13 08:18:35;;;;;;;5.32;3.65;;;7.40;91.10;;;;;;5048701;28;20534;-79
2022/11/13 08:21:03;;;;;;;5.63;3.13;;;7.40;91.20;;;;;;5046481;28;20040;-79
2022/11/13 08:23:29;;;;;;;5.03;3.50;;;7.40;91.20;;;;;;5060626;28;20028;-79
2022/11/13 08:25:55;;;;;;;4.88;3.50;;;7.50;91.30;;;;;;5038252;28;20111;-79
2022/11/13 08:28:20;;;;;;;5.03;3.30;;;7.50;91.40;;;;;;5065164;28;20441;-79
2022/11/13 08:30:46;;;;;;;5.50;3.80;;;7.60;91.40;;;;;;5065710;28;20031;-79
2022/11/13 08:33:12;;;;;;;5.47;3.37;;;7.60;91.50;;;;;;5061228;28;21343;-79
2022/11/13 08:35:37;;;;;;;7.40;3.55;;;7.60;91.50;;;;;;5025204;28;20070;-79
2022/11/13 08:38:05;;;;;;;4.90;3.33;;;7.70;91.60;;;;;;5067247;28;20036;-79
2022/11/13 08:40:31;;;;;;;5.80;4.05;;;7.70;91.70;;;;;;5047692;28;20473;-79
2022/11/13 08:43:01;;;;;;;5.45;3.75;;;7.80;91.80;;;;;;5048057;28;20137;-79
2022/11/13 08:45:28;;;;;;;5.43;3.73;;;7.80;92.00;;;;;;5062555;28;20029;-79
2022/11/13 08:47:57;;;;;;;5.75;3.70;;;7.90;92.10;;;;;;5058043;28;20025;-79
2022/11/13 08:50:23;;;;;;;4.90;3.35;;;8.00;92.30;;;;;;5024027;28;20036;-79
2022/11/13 08:52:53;;;;;;;5.87;3.90;;;8.10;92.70;;;;;;5062125;28;20296;-79
2022/11/13 08:55:19;;;;;;;4.78;3.40;;;8.20;93.00;;;;;;5053066;28;20425;-79
2022/11/13 08:57:44;;;;;;;5.28;3.65;;;8.40;93.20;;;;;;5044094;28;21514;-80
2022/11/13 09:00:10;;;;;;;5.47;3.87;;;8.60;93.30;;;;;;5037946;28;20337;-79
2022/11/13 09:02:36;;;;;;;6.00;3.67;;;8.70;93.80;;;;;;5047399;28;20071;-79
2022/11/13 09:05:02;;;;;;;6.63;4.27;;;8.90;93.50;;;;;;5041355;28;20035;-79
2022/11/13 09:07:28;;;;;;;6.43;4.43;;;9.00;93.70;;;;;;5046949;28;20480;-79
2022/11/13 09:09:53;;;;;;;5.77;4.17;;;9.20;93.90;;;;;;5055621;28;20099;-79
2022/11/13 09:12:20;;;;;;;5.60;4.35;;;9.40;94.20;;;;;;5076530;28;20025;-82
2022/11/13 09:14:46;;;;;;;5.97;4.10;;;9.70;94.70;;;;;;5028757;28;20367;-81
2022/11/13 09:17:11;;;;;;;5.83;4.23;;;9.90;95.50;;;;;;5064952;28;20028;-81
2022/11/13 09:19:37;;;;;;;6.38;4.40;;;10.30;96.30;;;;;;5055533;28;20246;-81
2022/11/13 09:22:03;;;;;;;6.60;4.83;;;10.60;96.90;;;;;;5017660;28;20028;-82
2022/11/13 09:24:28;;;;;;;6.40;4.63;;;11.10;98.10;;;;;;5063805;28;20571;-82
2022/11/13 09:26:54;;;;;;;6.57;4.90;;;11.60;99.60;;;;;;5050146;27;23315;-81
2022/11/13 09:29:22;;;;;;;6.95;4.97;;;12.20;99.90;;;;;;5031577;28;20028;-81
2022/11/13 09:31:48;;;;;;;7.83;5.27;;;12.90;99.90;;;;;;5064458;28;20245;-81
2022/11/13 09:34:14;;;;;;;6.60;4.93;;;13.70;99.90;;;;;;5051457;28;20040;-81
2022/11/13 09:36:40;;;;;;;7.20;5.38;;;14.50;99.90;;;;;;5022974;28;20036;-79
2022/11/13 09:39:06;;;;;;;6.75;5.30;;;15.30;99.90;;;;;;5058587;28;20043;-79
2022/11/13 09:41:42;;;;;;;7.40;5.47;;;16.10;99.90;;;;;;5049283;28;20816;-79
2022/11/13 09:44:35;;;;;;;7.93;5.53;;;16.80;98.90;;;;;;5048442;28;20051;-79
2022/11/13 09:47:20;;;;;;;7.22;5.05;;;17.40;96.20;;;;;;5061067;28;20027;-79
2022/11/13 09:49:50;;;;;;;6.35;5.00;;;17.80;95.10;;;;;;5068169;28;20047;-79
2022/11/13 09:52:22;;;;;;;6.72;5.20;;;18.10;94.60;;;;;;5043189;28;20032;-80
2022/11/13 09:54:48;;;;;;;6.50;4.90;;;18.20;93.40;;;;;;5058563;28;20048;-79
2022/11/13 09:57:16;;;;;;;6.40;4.82;;;18.10;93.20;;;;;;5053614;28;20649;-80
2022/11/13 09:59:45;;;;;;;6.65;4.68;;;18.00;92.70;;;;;;5040356;28;20522;-79
2022/11/13 10:02:48;;;;;;;6.28;4.60;;;17.90;92.40;;;;;;5063236;28;20029;-79
2022/11/13 10:05:43;;;;;;;6.83;5.00;;;17.80;90.90;;;;;;5064204;28;20043;-79
2022/11/13 10:08:14;;;;;;;6.82;5.00;;;17.70;91.20;;;;;;5047148;28;20020;-79
2022/11/13 10:10:58;;;;;;;6.57;5.10;;;17.70;93.80;;;;;;5066867;28;20033;-79
2022/11/13 10:13:28;;;;;;;7.18;5.10;;;17.80;94.20;;;;;;5048123;28;20055;-79
2022/11/13 10:16:04;;;;;;;6.85;5.18;;;18.20;96.30;;;;;;5030964;28;20024;-79
2022/11/13 10:18:35;;;;;;;6.73;5.30;;;18.60;96.50;;;;;;5057412;28;20035;-79
2022/11/13 10:21:20;;;;;;;7.63;5.13;;;19.10;97.10;;;;;;5067115;28;20392;-79
2022/11/13 10:23:54;;;;;;;6.38;4.88;;;19.70;94.70;;;;;;5035658;28;20039;-79
2022/11/13 10:26:22;;;;;;;5.75;5.07;;;20.20;96.40;;;;;;5061212;28;20221;-80
2022/11/13 10:29:13;;;;;;;6.95;5.20;;;20.70;96.00;;;;;;5053274;28;20048;-80
2022/11/13 10:31:49;;;;;;;6.17;4.57;;;21.10;93.80;;;;;;5058472;28;20136;-80
2022/11/13 10:34:17;;;;;;;6.05;4.63;;;21.60;94.20;;;;;;5066600;28;20031;-80
2022/11/13 10:37:19;;;;;;;5.53;4.95;;;22.00;94.60;;;;;;5072014;28;20021;-80
2022/11/13 10:39:45;;;;;;;5.28;4.72;;;22.30;91.50;;;;;;5042156;28;20486;-81
2022/11/13 10:42:28;;;;;;;4.97;4.30;;;22.70;94.00;;;;;;5054038;28;20019;-81
2022/11/13 10:44:56;;;;;;;4.85;4.20;;;23.20;91.30;;;;;;5030235;28;20028;-81
2022/11/13 10:47:24;;;;;;;5.32;4.82;;;23.50;93.40;;;;;;5059633;28;20161;-81
2022/11/13 10:49:50;;;;;;;5.07;4.35;;;23.80;92.90;;;;;;5065184;28;20037;-81
2022/11/13 10:52:24;;;;;;;4.70;4.20;;;24.20;92.60;;;;;;5059848;28;20032;-81
2022/11/13 10:55:03;;;;;;;5.00;4.47;;;24.50;90.10;;;;;;5044414;28;20055;-81
2022/11/13 10:57:33;;;;;;;5.18;4.05;;;24.80;91.60;;;;;;5057647;28;20161;-81
2022/11/13 10:59:59;;;;;;;4.57;4.10;;;25.20;90.80;;;;;;5049434;28;20032;-81
2022/11/13 11:02:27;;;;;;;5.32;4.40;;;25.40;90.90;;;;;;5058671;28;20060;-81
2022/11/13 11:05:20;;;;;;;5.00;4.30;;;25.70;90.00;;;;;;5056699;28;20158;-81
2022/11/13 11:07:46;;;;;;;4.85;4.20;;;25.90;84.50;;;;;;5065209;28;20432;-81
2022/11/13 11:10:19;;;;;;;4.88;4.18;;;26.20;90.00;;;;;;5046483;28;20054;-81
2022/11/13 11:12:54;;;;;;;4.82;4.32;;;26.40;86.40;;;;;;5038136;28;20037;-80
2022/11/13 11:15:20;;;;;;;5.47;4.97;;;26.60;85.70;;;;;;5041172;28;21804;-81
2022/11/13 11:17:57;;;;;;;5.97;4.65;;;26.80;88.80;;;;;;5053414;28;20036;-81
2022/11/13 11:20:57;;;;;;;5.25;4.75;;;26.90;86.30;;;;;;5063018;28;20516;-81
2022/11/13 11:23:34;;;;;;;4.68;4.18;;;27.10;80.10;;;;;;5024257;28;20049;-81
2022/11/13 11:26:14;;;;;;;4.83;4.33;;;27.20;84.00;;;;;;5039175;28;20501;-80
2022/11/13 11:29:02;;;;;;;7.03;4.32;;;27.30;84.10;;;;;;5066802;28;20020;-80
2022/11/13 11:31:36;;;;;;;4.97;4.47;;;27.30;79.40;;;;;;5046701;28;20020;-80
2022/11/13 11:34:15;;;;;;;5.43;4.93;;;27.30;82.20;;;;;;5055801;28;20051;-80
2022/11/13 11:37:00;;;;;;;5.28;4.78;;;27.40;77.20;;;;;;5069869;28;20021;-80
2022/11/13 11:39:39;;;;;;;4.70;4.20;;;27.40;79.80;;;;;;5067155;28;20072;-80
2022/11/13 11:42:20;;;;;;;5.22;4.72;;;27.50;78.80;;;;;;5040978;28;20380;-80
2022/11/13 11:45:26;;;;;;;5.70;5.10;;;27.60;78.80;;;;;;5058039;28;20009;-81
2022/11/13 11:47:52;;;;;;;5.60;4.72;;;27.70;78.40;;;;;;5049127;28;20495;-80
2022/11/13 11:50:36;;;;;;;5.90;4.90;;;27.80;82.50;;;;;;5026603;28;20431;-81
2022/11/13 11:53:12;;;;;;;4.83;4.10;;;27.90;76.60;;;;;;5044813;28;20156;-80
2022/11/13 11:55:52;;;;;;;4.43;4.03;;;27.90;79.60;;;;;;5062430;28;20024;-80
2022/11/13 11:58:35;;;;;;;4.05;3.50;;;27.90;75.90;;;;;;5039825;28;20361;-80
2022/11/13 12:01:31;;;;;;;4.28;3.47;;;28.00;81.30;;;;;;5059550;28;20021;-81
2022/11/13 12:04:34;;;;;;;4.13;3.47;;;28.10;77.80;;;;;;4991115;28;20213;-80
2022/11/13 12:07:32;;;;;;;4.20;3.53;;;28.10;73.70;;;;;;5078915;28;20029;-80
2022/11/13 12:10:24;;;;;;;3.65;3.35;;;28.20;74.50;;;;;;5036450;28;20028;-80
2022/11/13 12:13:12;;;;;;;3.50;3.20;;;28.30;75.30;;;;;;5055200;28;20032;-81
2022/11/13 12:15:53;;;;;;;4.38;3.97;;;28.40;73.80;;;;;;5041229;28;20039;-80
2022/11/13 12:18:34;;;;;;;4.22;3.45;;;28.40;76.10;;;;;;5041668;28;21400;-80
2022/11/13 12:21:32;;;;;;;4.00;3.50;;;28.50;74.00;;;;;;5044292;28;20077;-80
2022/11/13 12:24:21;;;;;;;4.03;3.58;;;28.50;73.80;;;;;;5065472;28;20477;-80
2022/11/13 12:27:10;;;;;;;4.10;3.42;;;28.60;70.20;;;;;;5056527;28;20070;-81
2022/11/13 12:29:51;;;;;;;3.83;3.40;;;28.60;73.80;;;;;;5040723;28;20036;-81
2022/11/13 12:32:28;;;;;;;3.92;3.42;;;28.70;74.20;;;;;;5064432;28;20745;-81
2022/11/13 12:34:59;;;;;;;5.13;3.83;;;28.70;70.90;;;;;;5044241;28;20068;-80
2022/11/13 12:37:34;;;;;;;4.18;3.78;;;28.70;72.60;;;;;;5035563;28;20095;-80
2022/11/13 12:40:06;;;;;;;4.43;3.63;;;28.70;70.30;;;;;;5050335;28;20088;-80
2022/11/13 12:42:40;;;;;;;4.28;3.88;;;28.70;70.90;;;;;;5052673;28;20031;-80
2022/11/13 12:45:25;;;;;;;4.03;3.63;;;28.80;69.40;;;;;;5038808;28;20052;-80
2022/11/13 12:47:51;;;;;;;4.63;3.80;;;28.70;68.30;;;;;;5030835;28;20035;-80
2022/11/13 12:50:28;;;;;;;5.13;4.32;;;28.70;72.40;;;;;;5037420;28;20055;-80
2022/11/13 12:53:03;;;;;;;4.38;3.67;;;28.70;67.30;;;;;;5058642;28;20020;-80
2022/11/13 12:55:33;;;;;;;4.45;4.05;;;28.60;67.70;;;;;;5042255;28;20040;-81
2022/11/13 12:58:17;;;;;;;4.03;3.60;;;28.70;69.90;;;;;;5056098;28;20044;-80
2022/11/13 13:01:10;;;;;;;4.40;3.60;;;28.70;67.40;;;;;;5041881;28;20298;-80
2022/11/13 13:04:08;;;;;;;4.03;3.33;;;28.70;67.50;;;;;;5064511;28;20516;-80
2022/11/13 13:06:43;;;;;;;3.90;3.50;;;28.80;71.80;;;;;;4999050;28;20247;-80